シンガポール/チャンギ の空港の天気 - METARとTAF

シンガポール・チャンギ国際空港 ( WSSS / SIN ) - シンガポール Changi
飛行場実況気象(Metar)
観測時間08/11 15:30 SGT (08/11 07:30 UTC)
風向・風速北 3m/s
視程10km以上
天気現象
少しの雲 雲底高度 550m
少しの雲 雲底高度 610m
全天の8割程度の雲 雲底高度 4570m
気温30℃
湿度62%
気圧1009hPa
METARWSSS 110730Z 36005KT 310V060 9999 FEW018 FEW020TCU BKN150 30/22 Q1009 NOSIG
過去の天気等 Google飛行場航空写真 Wunderground天気予報

過去48時間のMETAR

飛行場予報(TAF)
発表時間: 8/11 13:00 SGT (8/11 05:00 UTC)
予報対象時間: 11日14時 SGT ~ 12日20時 SGT
風向・風速南南東 4m/s
視程10km以上
少しの雲 雲底高度 460m
全天の4割程度の雲 雲底高度 610m
12日9時 SGT ~ 12日13時 SGT に一時的に
風向・風速西北西 8m/s 瞬間風速 13m/s
視程3000m
天気現象雷雨
少しの積乱雲 雲底高度 370m
全天の8割程度の雲 雲底高度 460m
TAF WSSS 110500Z 1106/1212 16008KT 9999 FEW015 SCT020
TEMPO 1201/1205 29015G25KT 3000 TSRA FEW012CB BKN015